sensor_id;sensor_type;location;lat;lon;timestamp;P1;durP1;ratioP1;P2;durP2;ratioP2
72301;SDS011;60235;52.234;5.186;2023-03-26T00:00:36;43.55;;;11.85;;
72301;SDS011;60235;52.234;5.186;2023-03-26T00:03:04;42.28;;;10.82;;
72301;SDS011;60235;52.234;5.186;2023-03-26T00:05:30;76.13;;;19.80;;
72301;SDS011;60235;52.234;5.186;2023-03-26T00:07:57;55.75;;;14.77;;
72301;SDS011;60235;52.234;5.186;2023-03-26T00:10:23;26.75;;;8.40;;
72301;SDS011;60235;52.234;5.186;2023-03-26T00:12:49;30.83;;;9.02;;
72301;SDS011;60235;52.234;5.186;2023-03-26T00:15:15;34.88;;;9.02;;
72301;SDS011;60235;52.234;5.186;2023-03-26T00:17:42;17.40;;;4.93;;
72301;SDS011;60235;52.234;5.186;2023-03-26T00:20:10;16.92;;;3.42;;
72301;SDS011;60235;52.234;5.186;2023-03-26T00:22:37;12.48;;;3.40;;
72301;SDS011;60235;52.234;5.186;2023-03-26T00:25:03;19.80;;;5.15;;
72301;SDS011;60235;52.234;5.186;2023-03-26T00:27:31;11.68;;;3.80;;
72301;SDS011;60235;52.234;5.186;2023-03-26T00:29:58;15.00;;;4.10;;
72301;SDS011;60235;52.234;5.186;2023-03-26T00:32:26;16.00;;;4.55;;
72301;SDS011;60235;52.234;5.186;2023-03-26T00:34:53;17.08;;;4.00;;
72301;SDS011;60235;52.234;5.186;2023-03-26T00:37:19;19.00;;;4.10;;
72301;SDS011;60235;52.234;5.186;2023-03-26T00:39:51;18.17;;;4.07;;
72301;SDS011;60235;52.234;5.186;2023-03-26T00:42:17;13.55;;;3.70;;
72301;SDS011;60235;52.234;5.186;2023-03-26T00:44:43;16.65;;;3.90;;
72301;SDS011;60235;52.234;5.186;2023-03-26T00:47:09;16.10;;;5.35;;
72301;SDS011;60235;52.234;5.186;2023-03-26T00:49:35;15.68;;;4.68;;
72301;SDS011;60235;52.234;5.186;2023-03-26T00:52:01;16.58;;;4.13;;
72301;SDS011;60235;52.234;5.186;2023-03-26T00:54:27;15.35;;;4.15;;
72301;SDS011;60235;52.234;5.186;2023-03-26T00:56:53;14.13;;;3.95;;
72301;SDS011;60235;52.234;5.186;2023-03-26T00:59:20;15.90;;;4.20;;
72301;SDS011;60235;52.234;5.186;2023-03-26T01:01:47;15.25;;;4.53;;
72301;SDS011;60235;52.234;5.186;2023-03-26T01:04:20;12.95;;;4.43;;
72301;SDS011;60235;52.234;5.186;2023-03-26T01:09:20;13.93;;;4.68;;
72301;SDS011;60235;52.234;5.186;2023-03-26T01:11:48;14.50;;;4.30;;
72301;SDS011;60235;52.234;5.186;2023-03-26T01:14:24;17.60;;;4.82;;
72301;SDS011;60235;52.234;5.186;2023-03-26T01:19:20;15.25;;;4.43;;
72301;SDS011;60235;52.234;5.186;2023-03-26T01:21:46;17.67;;;4.95;;
72301;SDS011;60235;52.234;5.186;2023-03-26T01:24:13;18.00;;;4.82;;
72301;SDS011;60235;52.234;5.186;2023-03-26T01:26:45;15.18;;;4.28;;
72301;SDS011;60235;52.234;5.186;2023-03-26T01:29:21;12.18;;;3.85;;
72301;SDS011;60235;52.234;5.186;2023-03-26T01:31:53;16.35;;;4.75;;
72301;SDS011;60235;52.234;5.186;2023-03-26T01:34:29;12.55;;;3.92;;
72301;SDS011;60235;52.234;5.186;2023-03-26T01:39:58;11.73;;;4.03;;
72301;SDS011;60235;52.234;5.186;2023-03-26T01:42:40;14.02;;;4.00;;
72301;SDS011;60235;52.234;5.186;2023-03-26T01:45:09;16.08;;;4.70;;
72301;SDS011;60235;52.234;5.186;2023-03-26T01:47:37;13.43;;;4.85;;
72301;SDS011;60235;52.234;5.186;2023-03-26T01:50:04;17.95;;;4.85;;
72301;SDS011;60235;52.234;5.186;2023-03-26T01:52:30;18.60;;;4.78;;
72301;SDS011;60235;52.234;5.186;2023-03-26T01:54:56;17.27;;;3.78;;
72301;SDS011;60235;52.234;5.186;2023-03-26T01:57:26;17.88;;;4.25;;
72301;SDS011;60235;52.234;5.186;2023-03-26T02:00:06;15.85;;;4.72;;
72301;SDS011;60235;52.234;5.186;2023-03-26T02:05:43;16.33;;;4.75;;
72301;SDS011;60235;52.234;5.186;2023-03-26T02:10:41;15.35;;;5.22;;
72301;SDS011;60235;52.234;5.186;2023-03-26T02:13:09;16.67;;;4.60;;
72301;SDS011;60235;52.234;5.186;2023-03-26T02:15:35;17.67;;;5.18;;
72301;SDS011;60235;52.234;5.186;2023-03-26T02:18:01;11.88;;;4.85;;
72301;SDS011;60235;52.234;5.186;2023-03-26T02:20:28;13.77;;;4.13;;
72301;SDS011;60235;52.234;5.186;2023-03-26T02:22:54;16.02;;;4.68;;
72301;SDS011;60235;52.234;5.186;2023-03-26T02:25:21;14.23;;;4.78;;
72301;SDS011;60235;52.234;5.186;2023-03-26T02:27:49;16.15;;;4.82;;
72301;SDS011;60235;52.234;5.186;2023-03-26T02:30:17;16.00;;;5.43;;
72301;SDS011;60235;52.234;5.186;2023-03-26T02:32:43;13.30;;;5.53;;
72301;SDS011;60235;52.234;5.186;2023-03-26T02:35:10;17.45;;;5.55;;
72301;SDS011;60235;52.234;5.186;2023-03-26T02:37:36;16.98;;;5.65;;
72301;SDS011;60235;52.234;5.186;2023-03-26T02:40:03;17.52;;;4.93;;
72301;SDS011;60235;52.234;5.186;2023-03-26T02:42:34;17.00;;;5.90;;
72301;SDS011;60235;52.234;5.186;2023-03-26T02:45:00;14.43;;;5.20;;
72301;SDS011;60235;52.234;5.186;2023-03-26T02:47:26;18.17;;;5.40;;
72301;SDS011;60235;52.234;5.186;2023-03-26T02:49:52;20.75;;;5.45;;
72301;SDS011;60235;52.234;5.186;2023-03-26T02:52:19;19.60;;;5.72;;
72301;SDS011;60235;52.234;5.186;2023-03-26T02:54:45;20.60;;;5.32;;
72301;SDS011;60235;52.234;5.186;2023-03-26T02:57:11;15.38;;;5.20;;
72301;SDS011;60235;52.234;5.186;2023-03-26T02:59:37;18.20;;;5.53;;
72301;SDS011;60235;52.234;5.186;2023-03-26T03:02:03;16.52;;;5.50;;
72301;SDS011;60235;52.234;5.186;2023-03-26T03:04:29;22.23;;;5.78;;
72301;SDS011;60235;52.234;5.186;2023-03-26T03:06:55;21.55;;;5.40;;
72301;SDS011;60235;52.234;5.186;2023-03-26T03:09:24;15.57;;;5.70;;
72301;SDS011;60235;52.234;5.186;2023-03-26T03:14:17;19.85;;;5.50;;
72301;SDS011;60235;52.234;5.186;2023-03-26T03:16:43;17.15;;;5.55;;
72301;SDS011;60235;52.234;5.186;2023-03-26T03:19:09;18.02;;;5.28;;
72301;SDS011;60235;52.234;5.186;2023-03-26T03:21:35;18.67;;;5.72;;
72301;SDS011;60235;52.234;5.186;2023-03-26T03:24:01;21.17;;;5.68;;
72301;SDS011;60235;52.234;5.186;2023-03-26T03:26:27;24.38;;;5.05;;
72301;SDS011;60235;52.234;5.186;2023-03-26T03:28:54;16.05;;;4.97;;
72301;SDS011;60235;52.234;5.186;2023-03-26T03:31:21;19.85;;;5.78;;
72301;SDS011;60235;52.234;5.186;2023-03-26T03:33:48;21.40;;;7.00;;
72301;SDS011;60235;52.234;5.186;2023-03-26T03:36:15;17.50;;;5.38;;
72301;SDS011;60235;52.234;5.186;2023-03-26T03:38:48;15.73;;;5.70;;
72301;SDS011;60235;52.234;5.186;2023-03-26T03:41:14;21.80;;;5.32;;
72301;SDS011;60235;52.234;5.186;2023-03-26T03:43:42;19.05;;;5.88;;
72301;SDS011;60235;52.234;5.186;2023-03-26T03:46:08;17.38;;;4.72;;
72301;SDS011;60235;52.234;5.186;2023-03-26T03:48:34;21.58;;;5.90;;
72301;SDS011;60235;52.234;5.186;2023-03-26T03:51:03;24.98;;;5.53;;
72301;SDS011;60235;52.234;5.186;2023-03-26T03:53:30;21.83;;;5.82;;
72301;SDS011;60235;52.234;5.186;2023-03-26T03:56:00;21.17;;;5.72;;
72301;SDS011;60235;52.234;5.186;2023-03-26T03:58:27;17.15;;;5.40;;
72301;SDS011;60235;52.234;5.186;2023-03-26T04:00:54;19.25;;;5.43;;
72301;SDS011;60235;52.234;5.186;2023-03-26T04:03:25;16.77;;;5.82;;
72301;SDS011;60235;52.234;5.186;2023-03-26T04:05:54;22.70;;;6.15;;
72301;SDS011;60235;52.234;5.186;2023-03-26T04:08:21;18.58;;;6.05;;
72301;SDS011;60235;52.234;5.186;2023-03-26T04:10:48;20.58;;;4.93;;
72301;SDS011;60235;52.234;5.186;2023-03-26T04:13:15;22.63;;;5.13;;
72301;SDS011;60235;52.234;5.186;2023-03-26T04:15:41;18.45;;;5.43;;
72301;SDS011;60235;52.234;5.186;2023-03-26T04:18:07;16.40;;;4.95;;
72301;SDS011;60235;52.234;5.186;2023-03-26T04:20:37;20.58;;;6.05;;
72301;SDS011;60235;52.234;5.186;2023-03-26T04:23:05;24.65;;;5.63;;
72301;SDS011;60235;52.234;5.186;2023-03-26T04:25:31;27.10;;;6.45;;
72301;SDS011;60235;52.234;5.186;2023-03-26T04:28:00;23.85;;;5.57;;
72301;SDS011;60235;52.234;5.186;2023-03-26T04:30:30;31.45;;;6.47;;
72301;SDS011;60235;52.234;5.186;2023-03-26T04:32:57;25.83;;;6.18;;
72301;SDS011;60235;52.234;5.186;2023-03-26T04:35:24;29.90;;;6.00;;
72301;SDS011;60235;52.234;5.186;2023-03-26T04:37:50;23.25;;;5.72;;
72301;SDS011;60235;52.234;5.186;2023-03-26T04:40:17;28.55;;;5.47;;
72301;SDS011;60235;52.234;5.186;2023-03-26T04:42:44;18.85;;;5.60;;
72301;SDS011;60235;52.234;5.186;2023-03-26T04:45:14;18.60;;;5.32;;
72301;SDS011;60235;52.234;5.186;2023-03-26T04:47:41;27.10;;;6.15;;
72301;SDS011;60235;52.234;5.186;2023-03-26T04:50:08;27.17;;;6.22;;
72301;SDS011;60235;52.234;5.186;2023-03-26T04:52:34;27.25;;;6.35;;
72301;SDS011;60235;52.234;5.186;2023-03-26T04:55:01;34.17;;;7.35;;
72301;SDS011;60235;52.234;5.186;2023-03-26T04:57:37;24.65;;;6.03;;
72301;SDS011;60235;52.234;5.186;2023-03-26T05:00:06;21.80;;;6.13;;
72301;SDS011;60235;52.234;5.186;2023-03-26T05:02:38;34.67;;;6.38;;
72301;SDS011;60235;52.234;5.186;2023-03-26T05:05:05;18.55;;;5.13;;
72301;SDS011;60235;52.234;5.186;2023-03-26T05:07:32;27.25;;;5.55;;
72301;SDS011;60235;52.234;5.186;2023-03-26T05:09:58;27.20;;;5.82;;
72301;SDS011;60235;52.234;5.186;2023-03-26T05:12:27;28.63;;;6.07;;
72301;SDS011;60235;52.234;5.186;2023-03-26T05:14:53;26.52;;;5.55;;
72301;SDS011;60235;52.234;5.186;2023-03-26T05:17:19;30.20;;;6.35;;
72301;SDS011;60235;52.234;5.186;2023-03-26T05:19:45;29.02;;;6.55;;
72301;SDS011;60235;52.234;5.186;2023-03-26T05:22:12;39.03;;;6.97;;
72301;SDS011;60235;52.234;5.186;2023-03-26T05:24:38;31.17;;;6.30;;
72301;SDS011;60235;52.234;5.186;2023-03-26T05:27:04;30.00;;;6.47;;
72301;SDS011;60235;52.234;5.186;2023-03-26T05:29:30;31.52;;;6.25;;
72301;SDS011;60235;52.234;5.186;2023-03-26T05:31:56;37.25;;;7.75;;
72301;SDS011;60235;52.234;5.186;2023-03-26T05:34:22;35.05;;;6.40;;
72301;SDS011;60235;52.234;5.186;2023-03-26T05:36:50;29.73;;;6.22;;
72301;SDS011;60235;52.234;5.186;2023-03-26T05:39:17;26.85;;;7.63;;
72301;SDS011;60235;52.234;5.186;2023-03-26T05:41:43;41.78;;;7.25;;
72301;SDS011;60235;52.234;5.186;2023-03-26T05:44:09;32.85;;;6.25;;
72301;SDS011;60235;52.234;5.186;2023-03-26T05:46:35;32.25;;;6.28;;
72301;SDS011;60235;52.234;5.186;2023-03-26T05:49:01;35.03;;;6.97;;
72301;SDS011;60235;52.234;5.186;2023-03-26T05:51:27;28.35;;;6.68;;
72301;SDS011;60235;52.234;5.186;2023-03-26T05:53:53;32.75;;;7.55;;
72301;SDS011;60235;52.234;5.186;2023-03-26T05:56:19;41.47;;;7.07;;
72301;SDS011;60235;52.234;5.186;2023-03-26T05:58:45;36.50;;;6.80;;
72301;SDS011;60235;52.234;5.186;2023-03-26T06:01:12;41.17;;;7.95;;
72301;SDS011;60235;52.234;5.186;2023-03-26T06:03:43;30.58;;;6.93;;
72301;SDS011;60235;52.234;5.186;2023-03-26T06:06:10;31.08;;;6.13;;
72301;SDS011;60235;52.234;5.186;2023-03-26T06:08:49;39.90;;;8.23;;
72301;SDS011;60235;52.234;5.186;2023-03-26T06:11:17;27.88;;;6.93;;
72301;SDS011;60235;52.234;5.186;2023-03-26T06:13:43;34.42;;;7.43;;
72301;SDS011;60235;52.234;5.186;2023-03-26T06:16:10;34.58;;;7.75;;
72301;SDS011;60235;52.234;5.186;2023-03-26T06:18:36;30.25;;;7.13;;
72301;SDS011;60235;52.234;5.186;2023-03-26T06:21:03;38.53;;;7.47;;
72301;SDS011;60235;52.234;5.186;2023-03-26T06:23:29;40.42;;;7.40;;
72301;SDS011;60235;52.234;5.186;2023-03-26T06:25:55;36.42;;;6.80;;
72301;SDS011;60235;52.234;5.186;2023-03-26T06:28:22;33.28;;;7.45;;
72301;SDS011;60235;52.234;5.186;2023-03-26T06:30:48;38.17;;;7.93;;
72301;SDS011;60235;52.234;5.186;2023-03-26T06:33:14;43.80;;;7.95;;
72301;SDS011;60235;52.234;5.186;2023-03-26T06:35:40;47.17;;;8.68;;
72301;SDS011;60235;52.234;5.186;2023-03-26T06:38:08;38.08;;;7.82;;
72301;SDS011;60235;52.234;5.186;2023-03-26T06:40:34;49.05;;;9.15;;
72301;SDS011;60235;52.234;5.186;2023-03-26T06:43:00;37.30;;;8.38;;
72301;SDS011;60235;52.234;5.186;2023-03-26T06:45:26;45.75;;;9.20;;
72301;SDS011;60235;52.234;5.186;2023-03-26T06:47:52;46.50;;;9.70;;
72301;SDS011;60235;52.234;5.186;2023-03-26T06:50:19;45.58;;;8.68;;
72301;SDS011;60235;52.234;5.186;2023-03-26T06:52:45;44.28;;;8.75;;
72301;SDS011;60235;52.234;5.186;2023-03-26T06:55:11;39.85;;;8.95;;
72301;SDS011;60235;52.234;5.186;2023-03-26T06:57:37;42.47;;;9.07;;
72301;SDS011;60235;52.234;5.186;2023-03-26T07:00:04;46.20;;;9.90;;
72301;SDS011;60235;52.234;5.186;2023-03-26T07:02:30;58.38;;;10.40;;
72301;SDS011;60235;52.234;5.186;2023-03-26T07:04:56;50.40;;;10.10;;
72301;SDS011;60235;52.234;5.186;2023-03-26T07:07:23;63.08;;;11.50;;
72301;SDS011;60235;52.234;5.186;2023-03-26T07:09:49;55.45;;;10.82;;
72301;SDS011;60235;52.234;5.186;2023-03-26T07:12:16;68.85;;;12.77;;
72301;SDS011;60235;52.234;5.186;2023-03-26T07:14:42;55.88;;;11.38;;
72301;SDS011;60235;52.234;5.186;2023-03-26T07:17:08;69.78;;;12.40;;
72301;SDS011;60235;52.234;5.186;2023-03-26T07:19:34;65.97;;;12.75;;
72301;SDS011;60235;52.234;5.186;2023-03-26T07:22:00;58.80;;;12.63;;
72301;SDS011;60235;52.234;5.186;2023-03-26T07:24:26;68.80;;;15.43;;
72301;SDS011;60235;52.234;5.186;2023-03-26T07:26:55;56.75;;;11.07;;
72301;SDS011;60235;52.234;5.186;2023-03-26T07:29:36;50.53;;;12.02;;
72301;SDS011;60235;52.234;5.186;2023-03-26T07:37:09;57.53;;;14.25;;
72301;SDS011;60235;52.234;5.186;2023-03-26T07:39:42;35.88;;;9.73;;
72301;SDS011;60235;52.234;5.186;2023-03-26T07:47:26;31.95;;;9.27;;
72301;SDS011;60235;52.234;5.186;2023-03-26T07:49:53;26.38;;;9.20;;
72301;SDS011;60235;52.234;5.186;2023-03-26T07:52:21;27.98;;;9.60;;
72301;SDS011;60235;52.234;5.186;2023-03-26T07:54:47;26.73;;;9.27;;
72301;SDS011;60235;52.234;5.186;2023-03-26T07:57:19;33.92;;;9.82;;
72301;SDS011;60235;52.234;5.186;2023-03-26T08:00:09;29.55;;;9.05;;
72301;SDS011;60235;52.234;5.186;2023-03-26T08:09:59;23.48;;;8.98;;
72301;SDS011;60235;52.234;5.186;2023-03-26T08:15:16;19.30;;;7.13;;
72301;SDS011;60235;52.234;5.186;2023-03-26T08:17:44;20.13;;;6.68;;
72301;SDS011;60235;52.234;5.186;2023-03-26T08:22:44;20.65;;;6.13;;
72301;SDS011;60235;52.234;5.186;2023-03-26T08:25:25;20.65;;;6.38;;
72301;SDS011;60235;52.234;5.186;2023-03-26T08:28:08;23.98;;;6.28;;
72301;SDS011;60235;52.234;5.186;2023-03-26T08:30:35;19.85;;;5.80;;
72301;SDS011;60235;52.234;5.186;2023-03-26T08:33:03;18.15;;;5.35;;
72301;SDS011;60235;52.234;5.186;2023-03-26T08:35:35;16.85;;;5.00;;
72301;SDS011;60235;52.234;5.186;2023-03-26T08:38:06;18.42;;;5.20;;
72301;SDS011;60235;52.234;5.186;2023-03-26T08:48:58;16.77;;;5.05;;
72301;SDS011;60235;52.234;5.186;2023-03-26T08:59:31;21.35;;;4.70;;
72301;SDS011;60235;52.234;5.186;2023-03-26T09:24:58;21.25;;;5.03;;
72301;SDS011;60235;52.234;5.186;2023-03-26T09:32:49;17.63;;;4.80;;
72301;SDS011;60235;52.234;5.186;2023-03-26T09:38:00;23.02;;;4.97;;
72301;SDS011;60235;52.234;5.186;2023-03-26T09:58:47;22.60;;;4.15;;
72301;SDS011;60235;52.234;5.186;2023-03-26T10:01:20;20.63;;;3.83;;
72301;SDS011;60235;52.234;5.186;2023-03-26T10:06:51;24.13;;;3.50;;
72301;SDS011;60235;52.234;5.186;2023-03-26T10:20:14;18.27;;;3.25;;
72301;SDS011;60235;52.234;5.186;2023-03-26T10:22:51;16.45;;;2.83;;
72301;SDS011;60235;52.234;5.186;2023-03-26T10:28:04;20.40;;;2.70;;
72301;SDS011;60235;52.234;5.186;2023-03-26T10:53:53;20.27;;;3.33;;
72301;SDS011;60235;52.234;5.186;2023-03-26T10:58:47;19.70;;;2.63;;
72301;SDS011;60235;52.234;5.186;2023-03-26T11:01:23;21.20;;;3.17;;
72301;SDS011;60235;52.234;5.186;2023-03-26T11:03:54;15.82;;;2.70;;
72301;SDS011;60235;52.234;5.186;2023-03-26T11:11:30;14.55;;;3.17;;
72301;SDS011;60235;52.234;5.186;2023-03-26T11:18:59;17.70;;;2.28;;
72301;SDS011;60235;52.234;5.186;2023-03-26T11:21:31;14.15;;;2.55;;
72301;SDS011;60235;52.234;5.186;2023-03-26T11:24:05;10.77;;;2.00;;
72301;SDS011;60235;52.234;5.186;2023-03-26T11:26:41;16.75;;;2.65;;
72301;SDS011;60235;52.234;5.186;2023-03-26T11:32:16;12.82;;;2.50;;
72301;SDS011;60235;52.234;5.186;2023-03-26T11:34:59;16.95;;;2.33;;
72301;SDS011;60235;52.234;5.186;2023-03-26T11:37:31;13.95;;;2.38;;
72301;SDS011;60235;52.234;5.186;2023-03-26T11:39:58;13.18;;;2.00;;
72301;SDS011;60235;52.234;5.186;2023-03-26T11:42:25;14.43;;;2.22;;
72301;SDS011;60235;52.234;5.186;2023-03-26T11:44:57;19.48;;;2.78;;
72301;SDS011;60235;52.234;5.186;2023-03-26T11:47:28;15.85;;;2.17;;
72301;SDS011;60235;52.234;5.186;2023-03-26T11:49:55;16.85;;;1.70;;
72301;SDS011;60235;52.234;5.186;2023-03-26T11:52:22;14.35;;;2.10;;
72301;SDS011;60235;52.234;5.186;2023-03-26T11:54:48;17.65;;;3.03;;
72301;SDS011;60235;52.234;5.186;2023-03-26T11:57:21;9.00;;;1.60;;
72301;SDS011;60235;52.234;5.186;2023-03-26T11:59:57;21.15;;;2.22;;
72301;SDS011;60235;52.234;5.186;2023-03-26T12:02:30;11.52;;;2.10;;
72301;SDS011;60235;52.234;5.186;2023-03-26T12:05:23;14.50;;;2.25;;
72301;SDS011;60235;52.234;5.186;2023-03-26T12:07:56;19.60;;;2.55;;
72301;SDS011;60235;52.234;5.186;2023-03-26T12:10:26;16.20;;;2.35;;
72301;SDS011;60235;52.234;5.186;2023-03-26T12:12:53;15.48;;;1.80;;
72301;SDS011;60235;52.234;5.186;2023-03-26T12:15:21;11.65;;;1.98;;
72301;SDS011;60235;52.234;5.186;2023-03-26T12:17:48;14.85;;;2.13;;
72301;SDS011;60235;52.234;5.186;2023-03-26T12:22:49;16.15;;;2.15;;
72301;SDS011;60235;52.234;5.186;2023-03-26T12:25:20;13.75;;;2.03;;
72301;SDS011;60235;52.234;5.186;2023-03-26T12:32:45;10.95;;;2.00;;
72301;SDS011;60235;52.234;5.186;2023-03-26T12:35:30;9.45;;;1.73;;
72301;SDS011;60235;52.234;5.186;2023-03-26T12:40:43;15.93;;;2.35;;
72301;SDS011;60235;52.234;5.186;2023-03-26T12:43:23;15.48;;;2.28;;
72301;SDS011;60235;52.234;5.186;2023-03-26T12:45:54;11.02;;;2.47;;
72301;SDS011;60235;52.234;5.186;2023-03-26T12:48:22;12.93;;;2.03;;
72301;SDS011;60235;52.234;5.186;2023-03-26T13:03:36;14.20;;;1.40;;
72301;SDS011;60235;52.234;5.186;2023-03-26T13:06:15;11.35;;;1.50;;
72301;SDS011;60235;52.234;5.186;2023-03-26T13:16:57;9.30;;;1.60;;
72301;SDS011;60235;52.234;5.186;2023-03-26T13:19:41;14.35;;;1.58;;
72301;SDS011;60235;52.234;5.186;2023-03-26T13:25:03;10.88;;;1.42;;
72301;SDS011;60235;52.234;5.186;2023-03-26T13:38:17;10.52;;;1.58;;
72301;SDS011;60235;52.234;5.186;2023-03-26T13:40:52;13.05;;;1.60;;
72301;SDS011;60235;52.234;5.186;2023-03-26T13:48:21;7.93;;;1.42;;
72301;SDS011;60235;52.234;5.186;2023-03-26T13:51:01;12.30;;;1.80;;
72301;SDS011;60235;52.234;5.186;2023-03-26T13:53:31;10.77;;;1.60;;
72301;SDS011;60235;52.234;5.186;2023-03-26T13:55:59;9.68;;;1.85;;
72301;SDS011;60235;52.234;5.186;2023-03-26T13:58:37;12.75;;;1.83;;
72301;SDS011;60235;52.234;5.186;2023-03-26T14:01:13;11.20;;;1.35;;
72301;SDS011;60235;52.234;5.186;2023-03-26T14:03:51;9.45;;;1.42;;
72301;SDS011;60235;52.234;5.186;2023-03-26T14:08:45;11.13;;;1.40;;
72301;SDS011;60235;52.234;5.186;2023-03-26T14:11:15;12.43;;;2.03;;
72301;SDS011;60235;52.234;5.186;2023-03-26T14:13:46;10.05;;;1.67;;
72301;SDS011;60235;52.234;5.186;2023-03-26T14:16:23;5.97;;;1.17;;
72301;SDS011;60235;52.234;5.186;2023-03-26T14:18:55;11.27;;;1.75;;
72301;SDS011;60235;52.234;5.186;2023-03-26T14:24:21;9.82;;;1.20;;
72301;SDS011;60235;52.234;5.186;2023-03-26T14:42:42;12.70;;;1.60;;
72301;SDS011;60235;52.234;5.186;2023-03-26T15:19:29;12.90;;;1.73;;
72301;SDS011;60235;52.234;5.186;2023-03-26T15:35:18;11.18;;;1.60;;
72301;SDS011;60235;52.234;5.186;2023-03-26T15:40:35;10.10;;;1.50;;
72301;SDS011;60235;52.234;5.186;2023-03-26T15:43:13;8.40;;;1.90;;
72301;SDS011;60235;52.234;5.186;2023-03-26T15:45:43;13.10;;;1.83;;
72301;SDS011;60235;52.234;5.186;2023-03-26T15:50:40;11.48;;;1.67;;
72301;SDS011;60235;52.234;5.186;2023-03-26T15:53:11;9.43;;;1.88;;
72301;SDS011;60235;52.234;5.186;2023-03-26T15:55:42;6.65;;;1.30;;
72301;SDS011;60235;52.234;5.186;2023-03-26T16:01:30;11.85;;;1.67;;
72301;SDS011;60235;52.234;5.186;2023-03-26T16:03:38;8.05;;;1.38;;
72301;SDS011;60235;52.234;5.186;2023-03-26T16:11:12;12.65;;;1.90;;
72301;SDS011;60235;52.234;5.186;2023-03-26T16:13:48;7.93;;;1.58;;
72301;SDS011;60235;52.234;5.186;2023-03-26T16:18:41;11.68;;;1.35;;
72301;SDS011;60235;52.234;5.186;2023-03-26T16:23:55;8.52;;;1.75;;
72301;SDS011;60235;52.234;5.186;2023-03-26T16:26:26;10.70;;;1.27;;
72301;SDS011;60235;52.234;5.186;2023-03-26T16:29:15;9.23;;;1.60;;
72301;SDS011;60235;52.234;5.186;2023-03-26T16:36:52;9.93;;;2.17;;
72301;SDS011;60235;52.234;5.186;2023-03-26T16:42:09;8.43;;;1.33;;
72301;SDS011;60235;52.234;5.186;2023-03-26T16:49:51;5.18;;;0.98;;
72301;SDS011;60235;52.234;5.186;2023-03-26T16:52:24;10.80;;;1.83;;
72301;SDS011;60235;52.234;5.186;2023-03-26T16:57:42;8.30;;;1.20;;
72301;SDS011;60235;52.234;5.186;2023-03-26T17:05:17;9.48;;;1.40;;
72301;SDS011;60235;52.234;5.186;2023-03-26T17:07:50;9.32;;;1.58;;
72301;SDS011;60235;52.234;5.186;2023-03-26T17:10:21;9.07;;;1.70;;
72301;SDS011;60235;52.234;5.186;2023-03-26T17:13:08;8.20;;;1.20;;
72301;SDS011;60235;52.234;5.186;2023-03-26T17:15:41;7.45;;;1.48;;
72301;SDS011;60235;52.234;5.186;2023-03-26T17:20:38;12.63;;;1.55;;
72301;SDS011;60235;52.234;5.186;2023-03-26T17:26:07;6.95;;;1.40;;
72301;SDS011;60235;52.234;5.186;2023-03-26T17:36:42;11.70;;;2.17;;
72301;SDS011;60235;52.234;5.186;2023-03-26T17:42:17;6.15;;;1.30;;
72301;SDS011;60235;52.234;5.186;2023-03-26T17:45:43;6.03;;;1.48;;
72301;SDS011;60235;52.234;5.186;2023-03-26T17:47:39;11.65;;;1.30;;
72301;SDS011;60235;52.234;5.186;2023-03-26T17:52:40;13.55;;;1.60;;
72301;SDS011;60235;52.234;5.186;2023-03-26T17:55:13;6.07;;;1.10;;
72301;SDS011;60235;52.234;5.186;2023-03-26T18:00:07;8.20;;;1.10;;
72301;SDS011;60235;52.234;5.186;2023-03-26T18:02:41;14.90;;;1.90;;
72301;SDS011;60235;52.234;5.186;2023-03-26T18:05:08;7.28;;;1.25;;
72301;SDS011;60235;52.234;5.186;2023-03-26T18:12:49;8.27;;;1.60;;
72301;SDS011;60235;52.234;5.186;2023-03-26T18:18:09;8.50;;;1.55;;
72301;SDS011;60235;52.234;5.186;2023-03-26T18:20:36;7.75;;;1.30;;
72301;SDS011;60235;52.234;5.186;2023-03-26T18:23:10;7.40;;;1.17;;
72301;SDS011;60235;52.234;5.186;2023-03-26T18:25:37;14.90;;;2.15;;
72301;SDS011;60235;52.234;5.186;2023-03-26T18:28:04;8.25;;;1.10;;
72301;SDS011;60235;52.234;5.186;2023-03-26T18:30:31;6.88;;;1.58;;
72301;SDS011;60235;52.234;5.186;2023-03-26T18:33:01;8.55;;;1.63;;
72301;SDS011;60235;52.234;5.186;2023-03-26T18:38:22;13.77;;;2.22;;
72301;SDS011;60235;52.234;5.186;2023-03-26T18:40:49;7.45;;;1.10;;
72301;SDS011;60235;52.234;5.186;2023-03-26T18:43:16;11.32;;;1.30;;
72301;SDS011;60235;52.234;5.186;2023-03-26T18:45:43;9.73;;;1.75;;
72301;SDS011;60235;52.234;5.186;2023-03-26T18:48:22;3.97;;;1.27;;
72301;SDS011;60235;52.234;5.186;2023-03-26T18:50:52;13.70;;;1.85;;
72301;SDS011;60235;52.234;5.186;2023-03-26T18:53:20;7.82;;;1.38;;
72301;SDS011;60235;52.234;5.186;2023-03-26T18:55:47;5.70;;;1.00;;
72301;SDS011;60235;52.234;5.186;2023-03-26T18:58:32;6.90;;;1.52;;
72301;SDS011;60235;52.234;5.186;2023-03-26T19:03:31;5.78;;;0.80;;
72301;SDS011;60235;52.234;5.186;2023-03-26T19:08:26;8.57;;;1.33;;
72301;SDS011;60235;52.234;5.186;2023-03-26T19:10:53;8.50;;;1.23;;
72301;SDS011;60235;52.234;5.186;2023-03-26T19:13:20;7.45;;;1.00;;
72301;SDS011;60235;52.234;5.186;2023-03-26T19:15:46;10.20;;;1.20;;
72301;SDS011;60235;52.234;5.186;2023-03-26T19:18:18;11.45;;;1.83;;
72301;SDS011;60235;52.234;5.186;2023-03-26T19:20:49;7.93;;;1.35;;
72301;SDS011;60235;52.234;5.186;2023-03-26T19:23:16;9.75;;;1.45;;
72301;SDS011;60235;52.234;5.186;2023-03-26T19:25:44;8.75;;;1.00;;
72301;SDS011;60235;52.234;5.186;2023-03-26T19:28:18;12.48;;;1.52;;
72301;SDS011;60235;52.234;5.186;2023-03-26T19:30:45;9.32;;;1.08;;
72301;SDS011;60235;52.234;5.186;2023-03-26T19:33:12;4.90;;;1.02;;
72301;SDS011;60235;52.234;5.186;2023-03-26T19:35:40;10.88;;;1.60;;
72301;SDS011;60235;52.234;5.186;2023-03-26T19:40:49;6.53;;;1.63;;
72301;SDS011;60235;52.234;5.186;2023-03-26T19:43:16;6.95;;;1.45;;
72301;SDS011;60235;52.234;5.186;2023-03-26T19:45:43;6.75;;;1.00;;
72301;SDS011;60235;52.234;5.186;2023-03-26T19:48:11;5.20;;;0.85;;
72301;SDS011;60235;52.234;5.186;2023-03-26T19:53:10;8.32;;;1.10;;
72301;SDS011;60235;52.234;5.186;2023-03-26T19:55:40;6.90;;;0.90;;
72301;SDS011;60235;52.234;5.186;2023-03-26T19:58:10;9.88;;;1.08;;
72301;SDS011;60235;52.234;5.186;2023-03-26T20:00:36;7.78;;;0.98;;
72301;SDS011;60235;52.234;5.186;2023-03-26T20:03:03;5.28;;;0.95;;
72301;SDS011;60235;52.234;5.186;2023-03-26T20:05:31;7.65;;;2.10;;
72301;SDS011;60235;52.234;5.186;2023-03-26T20:07:57;7.47;;;1.20;;
72301;SDS011;60235;52.234;5.186;2023-03-26T20:10:25;6.25;;;1.25;;
72301;SDS011;60235;52.234;5.186;2023-03-26T20:12:51;10.52;;;1.55;;
72301;SDS011;60235;52.234;5.186;2023-03-26T20:15:19;6.28;;;1.20;;
72301;SDS011;60235;52.234;5.186;2023-03-26T20:17:46;10.15;;;2.05;;
72301;SDS011;60235;52.234;5.186;2023-03-26T20:20:16;6.07;;;1.00;;
72301;SDS011;60235;52.234;5.186;2023-03-26T20:22:43;7.07;;;0.93;;
72301;SDS011;60235;52.234;5.186;2023-03-26T20:25:23;6.82;;;1.50;;
72301;SDS011;60235;52.234;5.186;2023-03-26T20:27:51;7.80;;;1.42;;
72301;SDS011;60235;52.234;5.186;2023-03-26T20:30:19;7.28;;;0.90;;
72301;SDS011;60235;52.234;5.186;2023-03-26T20:32:45;11.88;;;1.30;;
72301;SDS011;60235;52.234;5.186;2023-03-26T20:35:23;7.43;;;1.20;;
72301;SDS011;60235;52.234;5.186;2023-03-26T20:37:49;10.48;;;1.30;;
72301;SDS011;60235;52.234;5.186;2023-03-26T20:40:16;8.02;;;1.25;;
72301;SDS011;60235;52.234;5.186;2023-03-26T20:42:43;8.25;;;1.20;;
72301;SDS011;60235;52.234;5.186;2023-03-26T20:47:35;6.45;;;1.05;;
72301;SDS011;60235;52.234;5.186;2023-03-26T20:50:01;7.50;;;1.10;;